Mora RC Data

Date Time Air Temperature Relative Humidity Dewpoint Windchill Heat Index Wind Speed Wind Dir. Rain Solar Radiation Soil Temperature
2m 2m 3m 3m 10cm
US/Mountain F % F F F MPH deg in MJ/m^2 F
max avg avg
2021-09-15 00:05:00 51.3 68.0 41.1 51.3 51.3 2.8 4.9 3.0 241.6 277.8 0.00 0.0000000 66.4
2021-09-15 00:10:00 50.7 68.8 40.8 50.7 50.7 2.2 5.3 3.3 234.9 251.1 0.00 0.0000000 66.3
2021-09-15 00:15:00 50.5 69.3 40.8 50.5 50.5 2.4 5.3 3.3 265.4 275.0 0.00 0.0000000 66.2
2021-09-15 00:20:00 50.7 69.5 41.1 50.7 50.7 1.9 4.7 2.3 74.2 310.4 0.00 0.0000000 66.1
2021-09-15 00:25:00 50.5 69.1 40.8 50.5 50.5 2.6 3.1 2.1 234.5 232.9 0.00 0.0000000 66.1
2021-09-15 00:30:00 49.5 72.5 41.0 49.5 49.5 2.4 4.0 3.0 262.4 224.3 0.00 0.0000000 66.0
2021-09-15 00:35:00 49.5 71.6 40.7 49.0 49.5 3.1 3.5 2.7 260.1 252.3 0.00 0.0000000 65.9
2021-09-15 00:40:00 48.6 72.2 40.1 48.6 48.6 1.7 3.8 2.6 241.8 261.7 0.00 0.0000000 65.8
2021-09-15 00:45:00 47.8 75.3 40.3 47.8 47.8 2.8 3.5 2.5 279.0 262.9 0.00 0.0000000 65.7
2021-09-15 00:50:00 47.6 75.7 40.3 46.0 47.6 4.0 4.9 2.9 234.8 258.1 0.00 0.0000000 65.7
2021-09-15 00:55:00 48.0 74.7 40.4 45.9 48.0 4.9 4.9 3.6 212.4 251.1 0.00 0.0000000 65.6
2021-09-15 01:00:00 46.7 77.3 39.9 44.0 46.7 5.5 6.3 3.9 244.6 235.9 0.00 0.0000000 65.5
2021-09-15 01:05:00 47.1 76.3 40.0 44.2 47.1 6.0 6.0 4.7 237.8 264.1 0.00 0.0000000 65.4
2021-09-15 01:10:00 48.1 74.1 40.3 45.5 48.1 5.8 7.2 5.0 294.0 272.9 0.00 0.0000000 65.3
2021-09-15 01:15:00 49.4 70.6 40.2 46.8 49.4 6.2 7.4 5.7 287.6 283.3 0.00 0.0000000 65.3
2021-09-15 01:20:00 49.3 70.9 40.3 49.3 49.3 2.8 6.3 4.4 341.6 285.9 0.00 0.0000000 65.2
2021-09-15 01:25:00 47.8 73.7 39.8 46.7 47.8 3.5 5.8 3.8 244.8 269.9 0.00 0.0000000 65.1
2021-09-15 01:30:00 46.5 76.7 39.6 46.5 46.5 2.8 6.0 3.7 261.6 265.4 0.00 0.0000000 65.0
2021-09-15 01:35:00 46.3 77.6 39.7 45.3 46.3 3.1 6.5 3.6 266.1 279.6 0.00 0.0000000 64.9
2021-09-15 01:40:00 46.9 76.0 39.7 46.9 46.9 2.6 4.7 3.3 271.9 286.5 0.00 0.0000000 64.9
2021-09-15 01:45:00 47.5 74.2 39.7 46.4 47.5 3.5 5.5 3.8 278.1 279.4 0.00 0.0000000 64.8
2021-09-15 01:50:00 47.3 75.0 39.8 45.8 47.3 4.0 6.2 4.6 278.4 271.1 0.00 0.0000000 64.7
2021-09-15 01:55:00 46.9 75.7 39.6 46.9 46.9 3.0 5.1 3.4 223.4 245.1 0.00 0.0000000 64.7
2021-09-15 02:00:00 46.9 75.9 39.7 44.9 46.9 4.6 6.5 4.3 313.0 277.1 0.00 0.0000000 64.6
2021-09-15 02:05:00 48.0 72.9 39.7 46.2 48.0 4.6 8.0 5.2 307.5 308.9 0.00 0.0000000 64.5
2021-09-15 02:10:00 47.8 73.3 39.7 46.6 47.8 3.7 7.2 4.5 280.9 268.1 0.00 0.0000000 64.5
2021-09-15 02:15:00 45.8 77.1 39.0 43.0 45.8 5.5 5.5 3.4 323.1 253.5 0.00 0.0000000 64.4
2021-09-15 02:20:00 44.9 80.2 39.1 43.1 44.9 3.8 4.7 3.7 239.0 257.3 0.00 0.0000000 64.3
2021-09-15 02:25:00 45.4 78.9 39.3 43.6 45.4 4.0 7.2 4.8 257.2 267.8 0.00 0.0000000 64.3
2021-09-15 02:30:00 44.9 79.5 38.9 42.9 44.9 4.0 5.3 3.7 239.2 250.0 0.00 0.0000000 64.2
2021-09-15 02:35:00 44.8 80.0 39.0 44.8 44.8 2.4 6.0 3.8 294.2 266.8 0.00 0.0000000 64.1
2021-09-15 02:40:00 45.3 79.0 39.2 43.3 45.3 4.2 6.9 4.4 306.1 289.4 0.00 0.0000000 64.1
2021-09-15 02:45:00 45.8 77.9 39.3 43.6 45.8 4.4 5.8 4.3 300.9 277.2 0.00 0.0000000 64.0
2021-09-15 02:50:00 45.9 77.5 39.3 43.6 45.9 4.7 5.6 4.0 296.4 269.2 0.00 0.0000000 64.0
2021-09-15 02:55:00 45.6 78.3 39.2 43.4 45.6 4.4 6.7 4.9 295.9 265.5 0.00 0.0000000 63.9
2021-09-15 03:00:00 45.6 78.8 39.4 43.2 45.6 4.7 5.3 3.8 280.5 282.7 0.00 0.0000000 63.9
2021-09-15 03:05:00 45.6 78.8 39.4 43.9 45.6 3.8 6.7 4.7 268.0 261.3 0.00 0.0000000 63.8
2021-09-15 03:10:00 45.6 78.5 39.3 44.3 45.6 3.3 5.5 3.8 306.6 260.0 0.00 0.0000000 63.7
2021-09-15 03:15:00 45.6 78.6 39.3 45.6 45.6 2.4 5.6 3.9 296.2 275.4 0.00 0.0000000 63.6
2021-09-15 03:20:00 46.0 77.2 39.3 44.7 46.0 3.5 6.2 4.3 216.5 256.5 0.00 0.0000000 63.6
2021-09-15 03:25:00 45.0 79.1 38.9 42.5 45.0 4.7 5.1 3.6 316.3 258.4 0.00 0.0000000 63.5
2021-09-15 03:30:00 44.4 80.8 38.9 42.7 44.4 3.7 4.7 3.6 315.0 295.5 0.00 0.0000000 63.5
2021-09-15 03:35:00 44.8 80.2 39.1 42.9 44.8 4.0 6.3 4.0 271.1 289.6 0.00 0.0000000 63.4
2021-09-15 03:40:00 44.3 79.5 38.4 42.8 44.3 3.5 4.2 3.0 201.1 236.4 0.00 0.0000000 63.4
2021-09-15 03:45:00 44.1 81.4 38.8 42.5 44.1 3.5 4.9 3.0 261.4 258.2 0.00 0.0000000 63.3
2021-09-15 03:50:00 44.4 81.1 39.0 44.4 44.4 2.6 5.3 3.6 276.8 263.5 0.00 0.0000000 63.2
2021-09-15 03:55:00 45.5 78.9 39.3 43.4 45.5 4.2 6.9 4.2 305.0 284.0 0.00 0.0000000 63.2
2021-09-15 04:00:00 45.6 78.4 39.2 42.3 45.6 6.2 6.5 3.9 275.6 270.5 0.00 0.0000000 63.1
2021-09-15 04:05:00 45.6 78.3 39.2 42.4 45.6 6.0 9.2 5.3 309.5 259.5 0.00 0.0000000 63.1
2021-09-15 04:10:00 45.3 78.9 39.2 41.8 45.3 6.5 7.2 4.9 273.3 243.5 0.00 0.0000000 63.0
2021-09-15 04:15:00 46.2 76.8 39.3 45.2 46.2 3.1 8.7 5.6 297.5 275.6 0.00 0.0000000 62.9
2021-09-15 04:20:00 46.3 76.4 39.3 46.3 46.3 2.4 6.7 5.0 341.3 299.9 0.00 0.0000000 62.9
2021-09-15 04:25:00 45.8 78.0 39.4 45.8 45.8 2.6 4.2 2.9 0.8 336.2 0.00 0.0000000 62.8
2021-09-15 04:30:00 45.6 78.1 39.2 45.6 45.6 0.0 3.0 1.0 254.3 310.7 0.00 0.0000000 62.8
2021-09-15 04:35:00 44.2 79.0 38.1 44.2 44.2 0.0 2.8 1.6 275.5 223.0 0.00 0.0000000 62.7
2021-09-15 04:40:00 43.4 83.2 38.7 43.4 43.4 3.0 3.8 2.5 280.6 251.6 0.00 0.0000000 62.7
2021-09-15 04:45:00 43.9 81.9 38.7 43.9 43.9 2.6 6.0 3.7 263.2 273.5 0.00 0.0000000 62.6
2021-09-15 04:50:00 44.5 80.7 38.9 42.6 44.5 3.8 5.8 3.8 313.7 308.6 0.00 0.0000000 62.6
2021-09-15 04:55:00 44.6 80.7 39.0 43.1 44.6 3.5 6.0 4.0 326.2 315.4 0.00 0.0000000 62.5
2021-09-15 05:00:00 44.6 80.7 39.0 42.6 44.6 4.0 5.3 3.9 271.6 277.5 0.00 0.0000000 62.4
2021-09-15 05:05:00 44.6 80.5 39.0 43.2 44.6 3.3 4.9 3.8 277.6 260.7 0.00 0.0000000 62.4
2021-09-15 05:10:00 44.0 81.0 38.5 41.5 44.0 4.6 6.5 4.2 273.0 276.3 0.00 0.0000000 62.3
2021-09-15 05:15:00 43.3 82.4 38.3 41.4 43.3 3.7 5.3 3.9 257.5 262.7 0.00 0.0000000 62.3
2021-09-15 05:20:00 42.8 83.3 38.0 42.8 42.8 1.3 4.4 2.7 277.2 247.5 0.00 0.0000000 62.2
2021-09-15 05:25:00 43.2 83.6 38.6 43.2 43.2 3.0 6.0 4.1 299.3 261.7 0.00 0.0000000 62.2
2021-09-15 05:30:00 44.0 81.6 38.7 42.2 44.0 3.7 5.1 3.3 275.5 264.5 0.00 0.0000000 62.1
2021-09-15 05:35:00 43.7 81.6 38.5 42.1 43.7 3.5 6.9 4.1 333.6 283.2 0.00 0.0000000 62.1
2021-09-15 05:40:00 43.7 82.5 38.7 41.5 43.7 4.0 4.9 3.2 318.3 270.1 0.00 0.0000000 62.0
2021-09-15 05:45:00 44.0 81.8 38.8 42.5 44.0 3.3 5.1 3.4 259.5 250.1 0.00 0.0000000 62.0
2021-09-15 05:50:00 44.4 80.6 38.8 44.4 44.4 0.0 6.3 3.2 291.3 279.8 0.00 0.0000000 61.9
2021-09-15 05:55:00 44.4 80.5 38.7 44.4 44.4 1.7 3.8 2.4 297.4 291.2 0.00 0.0000000 61.9
2021-09-15 06:00:00 44.4 80.6 38.8 44.4 44.4 1.7 4.7 2.0 286.3 306.3 0.00 0.0000000 61.8
2021-09-15 06:05:00 44.0 81.4 38.7 42.8 44.0 3.1 4.0 3.0 288.3 285.3 0.00 0.0000000 61.8
2021-09-15 06:10:00 44.0 81.4 38.7 44.0 44.0 2.1 4.6 2.8 282.6 286.3 0.00 0.0000000 61.7
2021-09-15 06:15:00 44.1 81.4 38.8 44.1 44.1 2.8 4.6 2.9 349.4 309.1 0.00 0.0000000 61.7
2021-09-15 06:20:00 44.2 81.5 38.9 41.0 44.2 5.6 5.6 3.7 281.1 301.8 0.00 0.0000000 61.6
2021-09-15 06:25:00 44.6 80.1 38.8 41.9 44.6 4.9 7.4 5.9 298.0 295.0 0.00 0.0000000 61.6
2021-09-15 06:30:00 45.0 79.7 39.1 45.0 45.0 2.6 7.2 4.9 298.1 294.7 0.00 0.0000000 61.5
2021-09-15 06:35:00 43.6 79.0 37.5 42.1 43.6 3.3 4.9 3.2 213.4 228.3 0.00 0.0000000 61.5
2021-09-15 06:40:00 42.5 84.1 38.0 39.5 42.5 4.9 8.1 4.8 318.3 268.2 0.00 0.0000000 61.4
2021-09-15 06:45:00 42.3 84.7 38.0 40.2 42.3 3.7 6.3 4.6 272.8 291.6 0.00 0.0001126 61.4
2021-09-15 06:50:00 42.8 84.4 38.4 40.8 42.8 3.7 5.3 3.7 238.6 283.4 0.00 0.0009416 61.3
2021-09-15 06:55:00 42.9 83.6 38.3 42.9 42.9 2.8 6.0 4.2 303.1 270.8 0.00 0.0019377 61.3
2021-09-15 07:00:00 44.1 81.2 38.7 41.2 44.1 5.1 6.9 4.7 309.5 300.2 0.00 0.0031775 61.3
2021-09-15 07:05:00 44.6 79.4 38.6 41.3 44.6 5.8 7.4 5.3 287.3 287.6 0.00 0.0048872 61.2
2021-09-15 07:10:00 44.2 79.5 38.2 41.4 44.2 4.9 7.2 5.3 263.3 258.4 0.00 0.0160598 61.2
2021-09-15 07:15:00 43.4 81.9 38.2 41.3 43.4 3.8 5.8 4.1 304.4 275.3 0.00 0.0213430 61.1
2021-09-15 07:20:00 44.0 81.3 38.6 41.7 44.0 4.2 7.8 5.0 283.5 281.6 0.00 0.0257074 61.1
2021-09-15 07:25:00 44.8 79.4 38.8 43.0 44.8 3.8 6.0 4.5 324.2 306.9 0.00 0.0299657 61.0
2021-09-15 07:30:00 45.5 78.0 39.0 45.5 45.5 2.1 4.6 2.9 323.0 296.0 0.00 0.0343584 61.0
2021-09-15 07:35:00 46.3 75.3 38.9 44.9 46.3 3.7 6.0 3.4 342.9 304.7 0.00 0.0390275 61.0
2021-09-15 07:40:00 46.6 74.8 39.0 45.0 46.6 3.8 5.3 4.0 280.7 302.5 0.00 0.0435240 60.9
2021-09-15 07:45:00 46.6 75.6 39.3 44.6 46.6 4.4 5.5 4.5 308.1 302.8 0.00 0.0481539 60.9
2021-09-15 07:50:00 46.7 75.8 39.5 45.0 46.7 4.0 6.3 4.4 303.9 305.5 0.00 0.0529999 60.9
2021-09-15 07:55:00 47.0 76.0 39.8 46.1 47.0 3.1 6.5 4.9 305.8 301.2 0.00 0.0577116 60.8
2021-09-15 08:00:00 47.7 74.7 40.0 46.7 47.7 3.3 5.1 3.8 320.7 306.0 0.00 0.0626021 60.8
2021-09-15 08:05:00 48.5 73.1 40.2 46.7 48.5 4.6 5.5 3.7 270.4 303.7 0.00 0.0674902 60.8
2021-09-15 08:10:00 49.1 73.1 40.8 48.0 49.1 3.7 5.8 4.2 311.7 300.9 0.00 0.0724011 60.8
2021-09-15 08:15:00 50.1 69.9 40.7 50.1 50.1 3.0 5.3 4.3 273.2 300.6 0.00 0.0773913 60.8
2021-09-15 08:20:00 51.1 66.9 40.5 51.1 51.1 2.6 6.3 4.4 291.7 299.9 0.00 0.0823079 60.8
2021-09-15 08:25:00 51.9 65.2 40.6 51.9 51.9 4.6 5.3 4.1 301.3 300.4 0.00 0.0874719 60.8
2021-09-15 08:30:00 52.9 64.1 41.1 52.9 52.9 2.2 4.0 2.7 277.5 316.1 0.00 0.0924287 60.8
2021-09-15 08:35:00 54.2 61.2 41.1 54.2 54.2 2.6 3.0 0.9 40.5 326.2 0.00 0.0972489 60.8
2021-09-15 08:40:00 55.2 61.3 42.1 55.2 55.2 1.7 3.1 1.2 318.3 39.1 0.00 0.1020474 60.8
2021-09-15 08:45:00 56.7 59.5 42.7 56.7 56.7 0.8 2.4 0.5 49.1 114.3 0.00 0.1069678 60.8
2021-09-15 08:50:00 56.6 59.5 42.6 56.6 56.6 2.8 3.5 2.2 345.3 352.3 0.00 0.1124601 60.9
2021-09-15 08:55:00 56.3 60.2 42.7 56.3 56.3 1.9 2.8 1.4 95.1 318.9 0.00 0.1173014 60.9
2021-09-15 09:00:00 57.8 56.5 42.4 57.8 57.8 2.4 2.6 1.8 69.5 75.6 0.00 0.1222763 60.9
2021-09-15 09:05:00 58.1 56.2 42.6 58.1 58.1 1.0 2.6 1.4 90.7 66.5 0.00 0.1269471 61.0
2021-09-15 09:10:00 58.5 57.1 43.3 58.5 58.5 2.1 3.3 1.8 51.6 48.3 0.00 0.1319003 61.1
2021-09-15 09:15:00 59.3 54.1 42.7 59.3 59.3 1.7 2.8 1.6 272.8 97.6 0.00 0.1369514 61.2
2021-09-15 09:20:00 60.2 53.9 43.4 60.2 60.2 1.5 3.1 1.5 108.6 49.0 0.00 0.1425873 61.3
2021-09-15 09:25:00 60.4 51.6 42.5 60.4 60.4 4.2 4.2 2.1 67.6 87.6 0.00 0.1472650 61.3
2021-09-15 09:30:00 60.6 54.0 43.9 60.6 60.6 3.3 4.0 2.7 126.9 86.3 0.00 0.1522674 61.4
2021-09-15 09:35:00 61.3 52.8 43.9 61.3 61.3 2.8 4.6 3.3 135.7 130.6 0.00 0.1567947 61.6
2021-09-15 09:40:00 61.8 53.4 44.7 61.8 61.8 2.1 4.4 3.2 139.9 116.1 0.00 0.1616496 61.7
2021-09-15 09:45:00 62.6 50.8 44.1 62.6 62.6 2.2 3.5 2.6 104.7 88.4 0.00 0.1668192 61.8
2021-09-15 09:50:00 63.1 48.4 43.3 63.1 63.1 3.1 4.2 2.3 111.3 88.5 0.00 0.1714808 62.0
2021-09-15 09:55:00 63.4 47.7 43.2 63.4 63.4 2.6 3.3 2.3 74.5 74.0 0.00 0.1758594 62.1
2021-09-15 10:00:00 64.3 48.4 44.4 64.3 64.3 3.5 4.9 2.1 119.9 88.7 0.00 0.1805556 62.2
2021-09-15 10:05:00 65.2 45.4 43.6 65.2 65.2 3.3 4.9 2.6 123.1 99.5 0.00 0.1848528 62.4
2021-09-15 10:10:00 65.9 42.6 42.5 65.9 65.9 4.0 4.2 3.0 94.7 97.0 0.00 0.1896690 62.6
2021-09-15 10:15:00 66.5 38.5 40.5 66.5 66.5 4.9 4.9 2.0 105.8 93.5 0.00 0.1937931 62.7
2021-09-15 10:20:00 67.1 39.8 41.8 67.1 67.1 0.0 4.4 1.9 325.5 35.1 0.00 0.1981239 62.9
2021-09-15 10:25:00 68.2 38.6 42.0 68.2 68.2 3.3 4.4 2.2 120.0 95.8 0.00 0.2011061 63.1
2021-09-15 10:30:00 68.4 40.0 43.2 68.4 68.4 1.3 5.6 3.0 43.5 74.2 0.00 0.2055784 63.3
2021-09-15 10:35:00 68.5 36.9 41.2 68.5 68.5 1.9 4.6 2.8 8.6 30.0 0.00 0.2092674 63.5
2021-09-15 10:40:00 70.0 37.6 43.0 70.0 70.0 2.4 4.0 2.6 99.9 85.4 0.00 0.2129827 63.7
2021-09-15 10:45:00 70.1 32.3 39.1 70.1 70.1 4.4 5.1 3.1 122.2 89.2 0.00 0.2163630 63.9
2021-09-15 10:50:00 70.2 35.8 41.8 70.2 70.2 3.7 4.7 3.0 124.4 156.8 0.00 0.2193715 64.1
2021-09-15 10:55:00 70.7 33.6 40.7 70.7 70.7 2.4 5.6 3.2 163.5 98.0 0.00 0.2239239 64.3
2021-09-15 11:00:00 71.2 34.3 41.6 71.2 71.2 4.4 5.6 4.0 128.2 107.5 0.00 0.2273432 64.6
2021-09-15 11:05:00 71.4 33.5 41.1 71.4 71.4 3.1 4.9 3.0 98.2 59.8 0.00 0.2308205 64.8
2021-09-15 11:10:00 72.3 32.6 41.2 72.3 72.3 3.8 4.7 3.4 120.3 93.4 0.00 0.2336874 65.1
2021-09-15 11:15:00 72.2 34.5 42.6 72.2 72.2 4.4 7.1 3.9 84.9 87.2 0.00 0.2367120 65.3
2021-09-15 11:20:00 72.8 31.7 41.0 72.8 72.8 2.2 6.3 4.1 103.1 98.1 0.00 0.2397169 65.6
2021-09-15 11:25:00 73.1 29.9 39.8 73.1 73.1 5.8 6.3 3.1 120.4 94.9 0.00 0.2433166 65.9
2021-09-15 11:30:00 73.9 29.3 39.9 73.9 73.9 5.6 6.0 3.5 113.6 92.4 0.00 0.2460385 66.2
2021-09-15 11:35:00 74.2 26.6 37.7 74.2 74.2 3.3 6.3 4.1 37.7 89.1 0.00 0.2477204 66.5
2021-09-15 11:40:00 75.1 25.0 36.8 75.1 75.1 2.4 6.2 4.1 178.4 115.8 0.00 0.2434735 66.8
2021-09-15 11:45:00 75.0 26.5 38.2 75.0 75.0 5.6 8.0 4.4 116.0 88.5 0.00 0.2544532 67.2
2021-09-15 11:50:00 76.4 25.8 38.8 76.4 76.4 3.1 5.5 3.8 108.1 99.4 0.00 0.2552523 67.5
2021-09-15 11:55:00 76.1 27.3 40.0 76.1 76.1 5.6 7.2 4.7 108.5 85.8 0.00 0.2544991 67.9
2021-09-15 12:00:00 75.6 26.0 38.4 75.6 75.6 2.1 7.4 4.5 205.7 84.0 0.00 0.2556143 68.2
2021-09-15 12:05:00 76.4 24.9 37.9 76.4 76.4 5.1 9.0 4.7 80.7 85.9 0.00 0.2615177 68.6
2021-09-15 12:10:00 76.0 23.8 36.4 76.0 76.0 3.0 8.7 5.4 78.7 86.9 0.00 0.2663678 69.0
2021-09-15 12:15:00 76.5 23.4 36.3 76.5 76.5 4.4 8.1 4.8 95.2 89.4 0.00 0.2694423 69.4
2021-09-15 12:20:00 76.6 21.7 34.5 76.6 76.6 6.0 10.1 5.9 86.6 87.1 0.00 0.2729503 69.8
2021-09-15 12:25:00 77.9 18.9 32.2 77.9 77.9 6.2 8.7 5.8 93.8 110.0 0.00 0.2837308 70.1
2021-09-15 12:30:00 78.0 21.7 35.7 78.0 78.0 7.4 7.4 5.0 108.2 93.6 0.00 0.2868100 70.5
2021-09-15 12:35:00 78.8 21.9 36.6 78.8 78.8 3.7 8.5 4.9 74.2 84.7 0.00 0.2825405 70.9
2021-09-15 12:40:00 78.7 19.8 34.0 78.7 78.7 6.5 9.6 5.8 82.3 104.4 0.00 0.2820266 71.3
2021-09-15 12:45:00 78.7 21.5 36.0 78.7 78.7 6.0 9.4 7.0 78.6 89.2 0.00 0.2855205 71.7
2021-09-15 12:50:00 77.5 21.6 35.2 77.5 77.5 4.2 10.8 5.8 119.7 97.4 0.00 0.2953819 72.1
2021-09-15 12:55:00 79.2 20.5 35.3 79.2 79.2 5.6 10.1 5.3 151.3 73.4 0.00 0.3076879 72.6
2021-09-15 13:00:00 80.3 17.2 31.8 80.3 80.3 6.2 9.9 6.4 88.0 134.0 0.00 0.3213746 73.0
2021-09-15 13:05:00 79.4 18.6 33.0 79.4 79.4 3.8 7.6 5.3 215.4 115.3 0.00 0.3123683 73.4
2021-09-15 13:10:00 79.5 19.2 33.8 79.5 79.5 6.0 10.3 5.2 93.1 155.2 0.00 0.3129175 73.8
2021-09-15 13:15:00 78.8 20.0 34.4 78.8 78.8 6.7 9.6 6.4 197.4 159.6 0.00 0.3130901 74.2
2021-09-15 13:20:00 79.2 19.9 34.5 79.2 79.2 4.6 10.1 6.0 183.7 170.9 0.00 0.3089971 74.6
2021-09-15 13:25:00 79.9 18.5 33.3 79.9 79.9 6.9 8.5 5.3 134.3 151.6 0.00 0.3181009 75.0
2021-09-15 13:30:00 79.1 20.9 35.7 79.1 79.1 7.6 10.8 6.0 170.8 194.2 0.00 0.3207732 75.3
2021-09-15 13:35:00 80.2 22.1 38.0 80.2 80.2 6.9 10.1 7.0 215.5 158.5 0.00 0.3214585 75.7
2021-09-15 13:40:00 79.4 24.5 40.0 79.4 79.4 8.1 11.0 7.4 148.5 142.7 0.00 0.3070180 76.0
2021-09-15 13:45:00 78.6 23.9 38.7 78.6 78.6 8.8 14.4 9.5 179.1 166.4 0.00 0.3109896 76.4
2021-09-15 13:50:00 78.9 23.7 38.8 78.9 78.9 5.1 12.6 7.5 169.0 161.8 0.00 0.3128756 76.7
2021-09-15 13:55:00 78.1 25.7 40.1 78.1 78.1 8.1 13.5 8.3 146.2 148.5 0.00 0.1973719 77.0
2021-09-15 14:00:00 76.2 25.5 38.4 76.2 76.2 4.2 10.3 5.9 210.3 160.5 0.00 0.0694093 77.3
2021-09-15 14:05:00 75.3 25.8 37.8 75.3 75.3 6.9 8.3 5.0 169.1 153.2 0.00 0.0633448 77.6
2021-09-15 14:10:00 74.7 26.9 38.4 74.7 74.7 6.9 8.1 5.3 118.4 170.8 0.00 0.0509321 77.9
2021-09-15 14:15:00 74.2 23.9 35.0 74.2 74.2 3.0 9.7 4.5 205.6 187.0 0.00 0.0492036 78.1
2021-09-15 14:20:00 74.6 26.0 37.4 74.6 74.6 5.3 7.6 2.8 152.8 106.3 0.00 0.0589769 78.2
2021-09-15 14:25:00 75.5 25.6 37.9 75.5 75.5 3.8 6.7 4.3 158.0 156.4 0.00 0.1655294 78.3
2021-09-15 14:30:00 76.7 23.7 36.8 76.7 76.7 6.9 7.6 5.1 189.3 152.5 0.00 0.1860249 78.3
2021-09-15 14:35:00 75.8 24.0 36.4 75.8 75.8 3.1 7.6 4.6 111.6 147.0 0.00 0.0565863 78.4
2021-09-15 14:40:00 74.9 26.6 38.3 74.9 74.9 4.4 6.2 3.8 147.5 140.4 0.00 0.0484829 78.4
2021-09-15 14:45:00 75.7 25.4 37.8 75.7 75.7 3.1 7.6 5.6 137.6 133.6 0.00 0.1604172 78.3
2021-09-15 14:50:00 77.3 23.7 37.3 77.3 77.3 8.1 8.1 4.7 116.4 123.9 0.00 0.1988353 78.4
2021-09-15 14:55:00 77.8 22.1 36.0 77.8 77.8 7.1 11.0 7.8 118.6 131.5 0.00 0.2500739 78.3
2021-09-15 15:00:00 78.9 22.1 36.9 78.9 78.9 3.5 10.6 5.8 147.9 174.8 0.00 0.2458986 78.3
2021-09-15 15:05:00 79.3 21.8 36.9 79.3 79.3 3.0 9.7 6.5 204.1 170.9 0.00 0.2369616 78.3
2021-09-15 15:10:00 79.5 19.7 34.6 79.5 79.5 9.4 9.4 5.8 138.7 152.1 0.00 0.2201058 78.3
2021-09-15 15:15:00 78.1 20.7 34.6 78.1 78.1 5.8 9.9 6.7 123.9 133.4 0.00 0.1930710 78.3
2021-09-15 15:20:00 77.6 20.3 33.7 77.6 77.6 4.2 9.6 6.9 64.5 110.3 0.00 0.1430932 78.4
2021-09-15 15:25:00 78.1 19.7 33.4 78.1 78.1 9.4 11.3 7.1 78.2 93.5 0.00 0.2268599 78.5
2021-09-15 15:30:00 79.0 20.5 35.1 79.0 79.0 6.0 9.9 7.4 82.0 93.8 0.00 0.2278548 78.6
2021-09-15 15:35:00 79.2 20.0 34.6 79.2 79.2 7.8 10.5 7.1 111.5 134.2 0.00 0.2175901 78.7
2021-09-15 15:40:00 79.9 18.8 33.6 79.9 79.9 6.2 10.5 7.0 91.6 136.5 0.00 0.2193406 78.8
2021-09-15 15:45:00 80.2 20.4 36.0 80.2 80.2 4.6 9.9 7.0 230.7 125.7 0.00 0.2099056 78.9
2021-09-15 15:50:00 79.8 17.9 32.4 79.8 79.8 5.8 10.5 5.5 145.8 151.4 0.00 0.2119444 79.0
2021-09-15 15:55:00 80.7 18.0 33.2 80.7 80.7 5.3 10.6 5.3 207.9 177.2 0.00 0.2019633 79.1
2021-09-15 16:00:00 78.9 19.5 33.8 78.9 78.9 4.2 8.1 5.9 132.2 150.3 0.00 0.1498739 79.2
2021-09-15 16:05:00 77.5 23.0 36.8 77.5 77.5 6.5 11.5 7.1 149.9 136.6 0.00 0.0591740 79.3
2021-09-15 16:10:00 75.7 25.2 37.6 75.7 75.7 5.1 11.7 8.8 127.0 128.4 0.00 0.0501170 79.4
2021-09-15 16:15:00 75.2 26.7 38.6 75.2 75.2 5.6 9.7 5.4 123.3 135.3 0.00 0.0420317 79.5
2021-09-15 16:20:00 75.5 25.1 37.3 75.5 75.5 7.1 10.3 5.9 144.5 125.1 0.00 0.0882481 79.6
2021-09-15 16:25:00 75.6 21.8 33.8 75.6 75.6 3.8 10.6 5.7 134.4 130.2 0.00 0.0320716 79.6
2021-09-15 16:30:00 75.6 26.0 38.3 75.6 75.6 4.9 8.1 4.5 141.8 141.0 0.00 0.0329630 79.6
2021-09-15 16:35:00 76.2 25.5 38.3 76.2 76.2 5.6 11.3 5.5 137.7 123.2 0.00 0.1385587 79.6
2021-09-15 16:40:00 77.3 26.7 40.4 77.3 77.3 6.2 10.1 6.4 292.6 127.0 0.00 0.1537797 79.6
2021-09-15 16:45:00 77.3 26.7 40.4 77.3 77.3 7.4 9.7 7.3 142.6 137.8 0.00 0.1446874 79.5
2021-09-15 16:50:00 77.8 26.7 40.8 77.8 77.8 6.2 9.2 5.6 178.4 135.0 0.00 0.1318613 79.4
2021-09-15 16:55:00 78.0 25.5 39.9 78.0 78.0 4.7 7.4 4.1 85.2 135.1 0.00 0.1319036 79.3
2021-09-15 17:00:00 78.0 27.0 41.3 78.0 78.0 5.1 7.2 3.8 100.8 96.5 0.00 0.0988665 79.3
2021-09-15 17:05:00 77.8 27.0 41.2 77.8 77.8 9.0 10.1 6.2 107.8 108.0 0.00 0.1237404 79.2
2021-09-15 17:10:00 77.3 27.5 41.2 77.3 77.3 3.1 10.1 7.3 127.5 134.2 0.00 0.1243245 79.1
2021-09-15 17:15:00 77.2 27.6 41.2 77.2 77.2 6.0 13.1 6.1 151.8 134.0 0.00 0.1156687 79.1
2021-09-15 17:20:00 76.9 28.4 41.7 76.9 76.9 5.3 8.5 5.3 111.6 131.8 0.00 0.1020292 79.0
2021-09-15 17:25:00 76.8 27.4 40.7 76.8 76.8 3.5 9.2 5.8 202.9 134.3 0.00 0.0950275 78.9
2021-09-15 17:30:00 76.6 27.7 40.8 76.6 76.6 9.2 11.3 6.1 200.9 108.6 0.00 0.0897920 78.9
2021-09-15 17:35:00 77.2 26.9 40.5 77.2 77.2 2.6 12.8 8.4 344.2 235.1 0.00 0.0859555 78.8
2021-09-15 17:40:00 77.0 25.3 38.7 77.0 77.0 3.1 7.1 3.6 292.1 62.2 0.00 0.0801097 78.7
2021-09-15 17:45:00 78.0 11.5 20.2 78.0 78.0 6.7 6.7 4.0 299.4 253.0 0.00 0.0738563 78.6
2021-09-15 17:50:00 78.2 11.4 20.1 78.2 78.2 3.8 8.3 4.4 255.4 301.7 0.00 0.0681201 78.5
2021-09-15 17:55:00 78.9 12.0 22.0 78.9 78.9 0.0 3.8 1.6 158.5 279.8 0.00 0.0634851 78.5
2021-09-15 18:00:00 78.0 24.7 39.0 78.0 78.0 2.8 4.2 2.1 130.6 139.1 0.00 0.0590097 78.4
2021-09-15 18:05:00 77.2 23.4 37.0 77.2 77.2 2.4 3.5 2.2 125.7 180.7 0.00 0.0535812 78.3
2021-09-15 18:10:00 76.1 28.5 41.1 76.1 76.1 2.1 5.6 3.2 173.1 168.6 0.00 0.0486505 78.2
2021-09-15 18:15:00 74.5 31.7 42.5 74.5 74.5 7.4 9.2 5.9 178.9 180.1 0.00 0.0441567 78.0
2021-09-15 18:20:00 73.6 31.8 41.8 73.6 73.6 9.7 9.9 7.1 189.7 176.8 0.00 0.0402403 77.9
2021-09-15 18:25:00 73.3 32.2 41.8 73.3 73.3 7.1 11.2 8.0 136.1 162.2 0.00 0.0360829 77.8
2021-09-15 18:30:00 73.5 28.8 39.1 73.5 73.5 1.5 11.3 5.3 217.8 182.5 0.00 0.0316663 77.6
2021-09-15 18:35:00 73.5 31.1 41.1 73.5 73.5 4.9 6.2 3.7 190.3 231.1 0.00 0.0267406 77.5
2021-09-15 18:40:00 72.6 33.2 42.1 72.6 72.6 7.6 10.1 4.9 168.8 204.5 0.00 0.0169906 77.4
2021-09-15 18:45:00 71.6 34.9 42.5 71.6 71.6 8.5 10.1 6.4 198.4 176.6 0.00 0.0024750 77.2
2021-09-15 18:50:00 71.0 36.3 42.9 71.0 71.0 4.0 11.0 6.4 175.0 167.5 0.00 0.0021974 77.0
2021-09-15 18:55:00 70.7 36.5 42.8 70.7 70.7 5.1 12.1 7.1 117.4 150.1 0.00 0.0017020 76.9
2021-09-15 19:00:00 70.4 37.0 42.9 70.4 70.4 5.5 11.2 6.9 145.3 172.2 0.00 0.0011274 76.7
2021-09-15 19:05:00 70.5 35.7 42.1 70.5 70.5 6.9 10.6 7.5 173.2 171.6 0.00 0.0005638 76.5
2021-09-15 19:10:00 70.2 38.0 43.4 70.2 70.2 5.8 10.8 6.6 163.5 174.5 0.00 0.0000669 76.4
2021-09-15 19:15:00 69.9 38.5 43.5 69.9 69.9 5.6 9.0 5.8 137.5 170.9 0.00 0.0000000 76.2
2021-09-15 19:20:00 69.9 38.2 43.3 69.9 69.9 4.4 13.5 7.5 150.2 168.9 0.00 0.0000000 76.0
2021-09-15 19:25:00 69.5 39.8 44.0 69.5 69.5 4.4 8.0 5.5 163.9 159.3 0.00 0.0000000 75.9
2021-09-15 19:30:00 69.0 40.1 43.8 69.0 69.0 4.0 11.3 6.2 187.1 161.2 0.00 0.0000000 75.7
2021-09-15 19:35:00 68.6 41.0 43.9 68.6 68.6 10.8 10.8 3.8 181.9 161.2 0.00 0.0000000 75.5
2021-09-15 19:40:00 68.7 40.8 43.9 68.7 68.7 4.0 12.1 5.9 252.9 163.8 0.00 0.0000000 75.3
2021-09-15 19:45:00 68.6 40.9 43.9 68.6 68.6 5.3 9.7 6.1 132.7 169.9 0.00 0.0000000 75.1
2021-09-15 19:50:00 68.3 41.2 43.8 68.3 68.3 5.5 8.8 4.9 165.4 166.6 0.00 0.0000000 75.0
2021-09-15 19:55:00 65.6 38.2 39.4 65.6 65.6 4.4 5.6 3.6 277.4 264.6 0.00 0.0000000 74.8
2021-09-15 20:00:00 64.2 45.2 42.6 64.2 64.2 2.2 4.4 1.8 86.7 14.5 0.00 0.0000000 74.7
2021-09-15 20:05:00 63.8 36.6 36.7 63.8 63.8 4.7 4.7 2.1 191.4 116.8 0.00 0.0000000 74.5
2021-09-15 20:10:00 59.6 37.2 33.4 59.6 59.6 2.2 6.3 4.1 250.0 215.1 0.00 0.0000000 74.3
2021-09-15 20:15:00 57.7 33.1 28.9 57.7 57.7 6.3 6.3 3.8 255.8 256.2 0.00 0.0000000 74.2
2021-09-15 20:20:00 57.0 33.5 28.6 57.0 57.0 6.3 6.5 4.4 250.0 239.8 0.00 0.0000000 74.0
2021-09-15 20:25:00 56.8 33.7 28.4 56.8 56.8 3.7 8.3 4.6 202.8 237.2 0.00 0.0000000 73.8
2021-09-15 20:30:00 56.3 34.0 28.3 56.3 56.3 4.0 5.1 3.8 204.3 227.9 0.00 0.0000000 73.7
2021-09-15 20:35:00 56.9 30.9 26.5 56.9 56.9 4.0 8.5 4.8 248.5 265.5 0.00 0.0000000 73.5
2021-09-15 20:40:00 56.5 34.9 29.1 56.5 56.5 4.4 5.1 3.4 219.4 226.6 0.00 0.0000000 73.3
2021-09-15 20:45:00 55.6 35.7 28.8 55.6 55.6 3.1 6.5 4.3 218.0 250.4 0.00 0.0000000 73.1
2021-09-15 20:50:00 54.6 36.2 28.3 54.6 54.6 3.5 6.2 3.8 277.3 263.2 0.00 0.0000000 73.0
2021-09-15 20:55:00 54.6 35.4 27.8 54.6 54.6 6.3 6.3 4.1 239.0 260.3 0.00 0.0000000 72.8
2021-09-15 21:00:00 55.1 35.5 28.2 55.1 55.1 6.0 6.2 4.9 245.2 262.3 0.00 0.0000000 72.7
2021-09-15 21:05:00 54.6 37.4 29.1 54.6 54.6 2.6 5.5 3.7 190.7 239.2 0.00 0.0000000 72.5
2021-09-15 21:10:00 53.4 40.1 29.7 53.4 53.4 3.8 5.1 3.4 194.5 237.6 0.00 0.0000000 72.4
2021-09-15 21:15:00 53.4 37.4 28.0 53.4 53.4 3.0 6.9 4.4 205.2 263.8 0.00 0.0000000 72.2
2021-09-15 21:20:00 54.6 36.0 28.1 54.6 54.6 3.1 7.6 4.2 265.5 288.0 0.00 0.0000000 72.0
2021-09-15 21:25:00 54.5 36.8 28.6 54.5 54.5 2.1 5.6 3.2 254.5 274.2 0.00 0.0000000 71.9
2021-09-15 21:30:00 53.9 38.3 29.0 53.9 53.9 2.4 6.0 3.7 257.0 271.1 0.00 0.0000000 71.8
2021-09-15 21:35:00 52.8 42.1 30.4 52.8 52.8 6.0 6.0 3.8 234.4 247.8 0.00 0.0000000 71.6
2021-09-15 21:40:00 52.4 40.8 29.3 52.4 52.4 5.3 7.6 4.6 245.4 265.6 0.00 0.0000000 71.5
2021-09-15 21:45:00 51.8 42.5 29.8 51.8 51.8 4.2 6.7 4.1 237.1 251.8 0.00 0.0000000 71.3
2021-09-15 21:50:00 51.0 44.6 30.2 51.0 51.0 2.6 5.3 3.6 280.3 252.6 0.00 0.0000000 71.2
2021-09-15 21:55:00 50.7 44.9 30.0 50.7 50.7 3.7 6.9 3.4 257.4 253.8 0.00 0.0000000 71.0
2021-09-15 22:00:00 51.3 42.6 29.3 51.3 51.3 3.8 5.3 3.5 291.3 258.4 0.00 0.0000000 70.9
2021-09-15 22:05:00 51.4 43.1 29.7 51.4 51.4 2.2 5.8 3.8 234.2 262.0 0.00 0.0000000 70.8
2021-09-15 22:10:00 50.4 45.7 30.2 50.4 50.4 5.3 5.3 2.9 269.4 244.8 0.00 0.0000000 70.6
2021-09-15 22:15:00 50.4 45.3 30.0 50.4 50.4 6.5 7.1 5.3 254.4 260.9 0.00 0.0000000 70.5
2021-09-15 22:20:00 51.0 46.3 31.1 51.0 51.0 3.7 7.6 5.1 240.4 257.2 0.00 0.0000000 70.3
2021-09-15 22:25:00 50.6 45.8 30.5 50.6 50.6 4.9 5.8 3.8 224.2 242.1 0.00 0.0000000 70.2
2021-09-15 22:30:00 50.3 46.9 30.8 50.3 50.3 3.5 5.5 3.7 269.5 243.9 0.00 0.0000000 70.1
2021-09-15 22:35:00 50.3 47.4 31.0 50.3 50.3 4.9 4.9 3.4 274.6 255.6 0.00 0.0000000 69.9
2021-09-15 22:40:00 49.4 49.8 31.4 47.7 49.4 4.7 5.6 4.4 245.1 233.6 0.00 0.0000000 69.8
2021-09-15 22:45:00 48.7 51.1 31.4 47.4 48.7 3.8 5.6 3.7 260.2 257.8 0.00 0.0000000 69.7
2021-09-15 22:50:00 48.2 52.4 31.6 47.2 48.2 3.5 4.4 2.3 281.0 245.4 0.00 0.0000000 69.6
2021-09-15 22:55:00 48.5 52.2 31.8 46.8 48.5 4.4 5.5 4.2 229.0 252.1 0.00 0.0000000 69.4
2021-09-15 23:00:00 49.0 51.1 31.7 47.5 49.0 4.2 7.2 4.3 245.5 255.4 0.00 0.0000000 69.3
2021-09-15 23:05:00 48.9 52.1 32.1 47.9 48.9 3.7 5.5 3.6 330.4 226.9 0.00 0.0000000 69.2
2021-09-15 23:10:00 49.7 50.8 32.2 47.5 49.7 5.6 7.1 4.6 223.8 252.7 0.00 0.0000000 69.1
2021-09-15 23:15:00 49.0 52.5 32.4 49.0 49.0 2.6 4.4 2.6 281.9 226.2 0.00 0.0000000 69.0
2021-09-15 23:20:00 49.6 51.1 32.3 48.8 49.6 3.5 7.1 4.5 304.5 268.2 0.00 0.0000000 68.9
2021-09-15 23:25:00 50.3 49.8 32.3 50.3 50.3 4.7 7.2 5.1 264.2 266.3 0.00 0.0000000 68.7
2021-09-15 23:30:00 51.0 49.8 32.8 51.0 51.0 3.3 7.8 5.9 274.3 268.9 0.00 0.0000000 68.6
2021-09-15 23:35:00 49.6 53.8 33.5 47.3 49.6 5.6 7.1 4.3 277.5 260.3 0.00 0.0000000 68.5
2021-09-15 23:40:00 49.0 54.7 33.4 49.0 49.0 2.6 6.5 3.7 298.1 256.1 0.00 0.0000000 68.4
2021-09-15 23:45:00 48.5 56.9 33.9 48.5 48.5 2.8 6.7 4.4 321.4 266.1 0.00 0.0000000 68.3
2021-09-15 23:50:00 48.3 57.2 33.9 45.8 48.3 5.8 5.8 4.0 245.9 274.8 0.00 0.0000000 68.2
2021-09-15 23:55:00 48.6 55.9 33.5 45.7 48.6 6.5 6.5 3.8 287.0 271.3 0.00 0.0000000 68.1
2021-09-16 00:00:00 49.2 55.4 33.9 47.8 49.2 4.2 6.3 4.7 205.3 258.8 0.00 0.0000000 68.0

Data is courtesy of the NM Climate Center. DO NOT USE IN LEGAL PROCEEDINGS.